Time;durP1;ratioP1;P1;durP2;ratioP2;P2;SDS_P1;SDS_P2;PMS_P1;PMS_P2;Temp;Humidity;BMP_temperature;BMP_pressure;BME280_temperature;BME280_humidity;BME280_pressure;Samples;Min_cycle;Max_cycle;Signal;HPM_P1;HPM_P2
2022/01/18 00:00:07;;;;;;;8.45;3.53;;;;;;;;;;6277406;22;20347;-80
2022/01/18 00:02:33;;;;;;;8.30;3.97;;;;;;;;;;6250213;22;20430;-79
2022/01/18 00:04:58;;;;;;;7.63;3.70;;;;;;;;;;6274824;22;20004;-79
2022/01/18 00:07:24;;;;;;;10.18;4.20;;;;;;;;;;6275434;22;20010;-79
2022/01/18 00:09:49;;;;;;;13.43;4.10;;;;;;;;;;6277246;22;20063;-79
2022/01/18 00:17:53;;;;;;;11.30;3.25;;;;;;;;;;6268602;22;20011;-80
2022/01/18 00:20:28;;;;;;;6.57;2.97;;;;;;;;;;6257190;22;20434;-80
2022/01/18 00:22:53;;;;;;;9.93;3.85;;;;;;;;;;6275765;22;20004;-80
2022/01/18 00:25:19;;;;;;;6.18;2.90;;;;;;;;;;6276219;22;20071;-79
2022/01/18 00:27:44;;;;;;;6.88;2.90;;;;;;;;;;6275017;22;20425;-80
2022/01/18 00:33:50;;;;;;;6.30;2.53;;;;;;;;;;6275095;22;20011;-80
2022/01/18 00:35:43;;;;;;;8.00;2.67;;;;;;;;;;6264974;22;20011;-79
2022/01/18 00:38:17;;;;;;;10.05;2.80;;;;;;;;;;6279583;22;20363;-79
2022/01/18 00:40:42;;;;;;;7.88;2.85;;;;;;;;;;6265320;22;20047;-78
2022/01/18 00:43:08;;;;;;;6.55;2.40;;;;;;;;;;6276740;22;20003;-78
2022/01/18 00:45:33;;;;;;;5.57;2.20;;;;;;;;;;6275576;22;20003;-78
2022/01/18 00:48:01;;;;;;;5.72;2.10;;;;;;;;;;6249618;22;20086;-79
2022/01/18 00:50:30;;;;;;;6.18;2.38;;;;;;;;;;6275537;22;20003;-78
2022/01/18 00:52:56;;;;;;;5.95;2.00;;;;;;;;;;6274876;22;20031;-78
2022/01/18 00:55:23;;;;;;;6.28;2.50;;;;;;;;;;6224150;22;20039;-78
2022/01/18 00:57:48;;;;;;;3.33;1.65;;;;;;;;;;6251846;22;20324;-78
2022/01/18 01:00:14;;;;;;;4.38;1.90;;;;;;;;;;6280667;22;20025;-78
2022/01/18 01:02:39;;;;;;;10.05;2.30;;;;;;;;;;6284659;22;20323;-78
2022/01/18 01:05:05;;;;;;;3.78;1.85;;;;;;;;;;6275497;22;20007;-79
2022/01/18 01:07:31;;;;;;;5.25;2.28;;;;;;;;;;6249197;22;20000;-79
2022/01/18 01:09:56;;;;;;;6.03;2.42;;;;;;;;;;6274681;22;20045;-79
2022/01/18 01:12:24;;;;;;;6.82;2.65;;;;;;;;;;6273072;22;20964;-79
2022/01/18 01:14:52;;;;;;;6.10;2.65;;;;;;;;;;6250497;22;20081;-78
2022/01/18 01:46:31;;;;;;;10.25;2.67;;;;;;;;;;6254139;22;20004;-79
2022/01/18 01:48:58;;;;;;;11.00;3.83;;;;;;;;;;6251643;22;20004;-79
2022/01/18 01:51:30;;;;;;;10.43;3.00;;;;;;;;;;6276255;22;20074;-77
2022/01/18 01:54:06;;;;;;;8.65;3.17;;;;;;;;;;6275095;22;20053;-78
2022/01/18 01:56:32;;;;;;;10.48;3.13;;;;;;;;;;6276604;22;19999;-78
2022/01/18 01:58:58;;;;;;;8.68;3.15;;;;;;;;;;6277142;22;20342;-80
2022/01/18 02:01:23;;;;;;;10.05;2.85;;;;;;;;;;6250262;22;20470;-78
2022/01/18 02:03:49;;;;;;;11.60;4.10;;;;;;;;;;6280980;22;20006;-78
2022/01/18 02:06:14;;;;;;;16.60;3.20;;;;;;;;;;6293271;22;20007;-78
2022/01/18 02:08:40;;;;;;;6.28;2.67;;;;;;;;;;6251011;22;20004;-81
2022/01/18 02:11:05;;;;;;;8.60;3.20;;;;;;;;;;6275383;22;20029;-77
2022/01/18 02:13:33;;;;;;;11.48;3.88;;;;;;;;;;6276026;22;20418;-77
2022/01/18 02:23:55;;;;;;;13.20;4.43;;;;;;;;;;6277737;22;20097;-80
2022/01/18 02:26:21;;;;;;;16.67;4.88;;;;;;;;;;6286185;22;20004;-80
2022/01/18 02:28:46;;;;;;;11.15;3.67;;;;;;;;;;6289367;22;20043;-80
2022/01/18 02:31:12;;;;;;;7.32;2.83;;;;;;;;;;6275137;22;20008;-81
2022/01/18 02:33:37;;;;;;;7.25;2.97;;;;;;;;;;6275639;22;20000;-81
2022/01/18 02:36:06;;;;;;;10.77;2.78;;;;;;;;;;6278407;22;20038;-82
2022/01/18 02:38:32;;;;;;;7.15;2.88;;;;;;;;;;6225714;22;20023;-80
2022/01/18 02:40:58;;;;;;;16.15;3.88;;;;;;;;;;6277155;22;19999;-81
2022/01/18 02:46:07;;;;;;;8.18;3.22;;;;;;;;;;6260076;22;20013;-81
2022/01/18 02:48:33;;;;;;;10.15;3.78;;;;;;;;;;6252859;22;20091;-78
2022/01/18 02:50:58;;;;;;;4.63;2.35;;;;;;;;;;6276389;22;20086;-79
2022/01/18 02:53:24;;;;;;;7.28;2.72;;;;;;;;;;6276447;22;20007;-79
2022/01/18 02:55:53;;;;;;;9.20;2.70;;;;;;;;;;6252436;22;20008;-80
2022/01/18 02:58:27;;;;;;;8.82;3.10;;;;;;;;;;6251325;22;20004;-80
2022/01/18 03:03:35;;;;;;;5.25;2.03;;;;;;;;;;6276923;22;20006;-79
2022/01/18 03:06:01;;;;;;;5.55;2.40;;;;;;;;;;6277222;22;20007;-79
2022/01/18 03:08:27;;;;;;;7.18;2.75;;;;;;;;;;6262172;22;20007;-78
2022/01/18 03:10:52;;;;;;;7.72;2.60;;;;;;;;;;6256193;22;20418;-78
2022/01/18 03:13:18;;;;;;;8.35;2.58;;;;;;;;;;6275830;22;20000;-79
2022/01/18 03:15:44;;;;;;;7.03;2.40;;;;;;;;;;6251010;22;20035;-78
2022/01/18 03:18:09;;;;;;;10.45;2.45;;;;;;;;;;6275698;22;20006;-78
2022/01/18 03:20:35;;;;;;;4.80;2.53;;;;;;;;;;6276661;22;20350;-79
2022/01/18 03:23:01;;;;;;;7.18;2.45;;;;;;;;;;6275971;22;19996;-78
2022/01/18 03:28:06;;;;;;;14.55;3.88;;;;;;;;;;6278718;22;20000;-79
2022/01/18 03:30:42;;;;;;;11.77;3.60;;;;;;;;;;6295660;22;20004;-79
2022/01/18 03:33:10;;;;;;;7.57;3.20;;;;;;;;;;6227149;22;20000;-79
2022/01/18 03:35:36;;;;;;;9.20;3.33;;;;;;;;;;6274801;22;20102;-78
2022/01/18 03:38:01;;;;;;;14.80;2.72;;;;;;;;;;6279069;22;20000;-78
2022/01/18 03:40:27;;;;;;;8.20;2.90;;;;;;;;;;6278223;22;20015;-78
2022/01/18 03:42:54;;;;;;;10.00;3.63;;;;;;;;;;6276377;22;20031;-78
2022/01/18 03:45:24;;;;;;;10.18;3.55;;;;;;;;;;6276459;22;20004;-78
2022/01/18 03:47:49;;;;;;;13.38;3.92;;;;;;;;;;6281453;22;19999;-79
2022/01/18 03:50:15;;;;;;;7.47;3.00;;;;;;;;;;6286794;22;19991;-78
2022/01/18 03:52:41;;;;;;;8.32;2.75;;;;;;;;;;6292767;22;20006;-79
2022/01/18 03:55:08;;;;;;;6.28;2.50;;;;;;;;;;6291535;22;20467;-78
2022/01/18 03:57:34;;;;;;;5.60;2.33;;;;;;;;;;6224768;22;20004;-78
2022/01/18 03:59:59;;;;;;;7.70;2.45;;;;;;;;;;6276649;22;20004;-78
2022/01/18 04:02:25;;;;;;;6.47;2.67;;;;;;;;;;6274945;22;19996;-78
2022/01/18 04:04:50;;;;;;;9.35;2.90;;;;;;;;;;6225113;22;20090;-78
2022/01/18 04:07:16;;;;;;;13.27;3.20;;;;;;;;;;6277035;22;20315;-79
2022/01/18 04:09:41;;;;;;;9.02;3.10;;;;;;;;;;6255489;22;20003;-80
2022/01/18 04:12:07;;;;;;;9.15;3.42;;;;;;;;;;6259501;22;20008;-78
2022/01/18 04:14:33;;;;;;;11.80;3.15;;;;;;;;;;6280745;22;20004;-78
2022/01/18 04:27:29;;;;;;;30.35;8.07;;;;;;;;;;6276754;22;20010;-79
2022/01/18 04:29:54;;;;;;;27.75;8.13;;;;;;;;;;6281009;22;20458;-79
2022/01/18 04:32:20;;;;;;;23.60;6.97;;;;;;;;;;6291040;22;20012;-80
2022/01/18 04:34:45;;;;;;;14.65;5.30;;;;;;;;;;6250108;22;20007;-79
2022/01/18 04:37:11;;;;;;;12.68;4.40;;;;;;;;;;6249559;22;20027;-79
2022/01/18 04:39:40;;;;;;;8.93;3.03;;;;;;;;;;6274228;22;20028;-80
2022/01/18 04:50:17;;;;;;;20.98;7.03;;;;;;;;;;6281910;22;20058;-79
2022/01/18 04:52:43;;;;;;;22.00;6.65;;;;;;;;;;6289903;22;20000;-79
2022/01/18 04:55:10;;;;;;;14.52;5.03;;;;;;;;;;6274787;22;20015;-78
2022/01/18 04:57:54;;;;;;;16.65;5.35;;;;;;;;;;6274227;22;20083;-79
2022/01/18 05:00:20;;;;;;;8.25;3.83;;;;;;;;;;6275504;22;20004;-79
2022/01/18 05:02:47;;;;;;;9.20;4.28;;;;;;;;;;6274071;22;20419;-78
2022/01/18 05:05:23;;;;;;;11.13;4.00;;;;;;;;;;6248850;22;19999;-79
2022/01/18 05:07:52;;;;;;;13.23;4.72;;;;;;;;;;6250177;22;20073;-77
2022/01/18 05:10:19;;;;;;;13.75;5.20;;;;;;;;;;6275432;22;20007;-77
2022/01/18 05:12:48;;;;;;;19.25;5.82;;;;;;;;;;6276416;22;20065;-78
2022/01/18 05:18:55;;;;;;;26.75;7.57;;;;;;;;;;6275125;22;20096;-81
2022/01/18 05:23:09;;;;;;;11.63;5.13;;;;;;;;;;6275709;22;20086;-80
2022/01/18 05:25:35;;;;;;;15.15;5.65;;;;;;;;;;6275078;22;20025;-81
2022/01/18 05:28:03;;;;;;;14.82;5.75;;;;;;;;;;6248085;22;20057;-81
2022/01/18 05:30:28;;;;;;;12.32;5.22;;;;;;;;;;6275653;22;20052;-81
2022/01/18 05:32:54;;;;;;;17.75;5.50;;;;;;;;;;6281552;22;20373;-81
2022/01/18 05:35:19;;;;;;;12.07;5.07;;;;;;;;;;6289810;22;20011;-81
2022/01/18 05:37:46;;;;;;;15.88;6.03;;;;;;;;;;6273837;22;20003;-81
2022/01/18 05:40:12;;;;;;;17.65;5.43;;;;;;;;;;6275158;22;20099;-81
2022/01/18 05:42:37;;;;;;;14.40;5.57;;;;;;;;;;6273642;22;20010;-82
2022/01/18 05:45:03;;;;;;;15.98;6.15;;;;;;;;;;6273791;22;20030;-80
2022/01/18 05:47:30;;;;;;;13.75;5.45;;;;;;;;;;6273729;22;20004;-80
2022/01/18 05:49:58;;;;;;;13.73;5.47;;;;;;;;;;6277212;22;20031;-82
2022/01/18 05:52:23;;;;;;;24.02;6.22;;;;;;;;;;6282238;22;20004;-82
2022/01/18 05:54:49;;;;;;;11.15;5.20;;;;;;;;;;6287262;22;20000;-82
2022/01/18 05:57:14;;;;;;;19.60;6.35;;;;;;;;;;6284215;22;20008;-81
2022/01/18 05:59:46;;;;;;;12.30;4.72;;;;;;;;;;6280660;22;20004;-83
2022/01/18 06:02:34;;;;;;;27.33;5.85;;;;;;;;;;6255512;22;20020;-80
2022/01/18 06:11:03;;;;;;;14.30;6.03;;;;;;;;;;6248989;22;20016;-78
2022/01/18 06:13:29;;;;;;;26.52;10.23;;;;;;;;;;6246781;23;20012;-78
2022/01/18 06:15:55;;;;;;;23.00;7.57;;;;;;;;;;6207040;23;20031;-76
2022/01/18 06:18:22;;;;;;;27.67;8.15;;;;;;;;;;6221786;23;20065;-78
2022/01/18 06:20:47;;;;;;;28.77;9.55;;;;;;;;;;6243831;23;20004;-78
2022/01/18 06:23:13;;;;;;;28.88;8.30;;;;;;;;;;6243898;23;20027;-77
2022/01/18 06:25:40;;;;;;;23.33;7.85;;;;;;;;;;6244331;23;20035;-78
2022/01/18 06:28:05;;;;;;;22.40;7.45;;;;;;;;;;6220572;23;20000;-78
2022/01/18 06:30:31;;;;;;;27.35;8.45;;;;;;;;;;6244676;23;20023;-80
2022/01/18 06:32:57;;;;;;;25.33;9.15;;;;;;;;;;6252108;23;20007;-78
2022/01/18 06:35:23;;;;;;;30.58;10.50;;;;;;;;;;6229891;23;20019;-77
2022/01/18 06:37:48;;;;;;;23.55;8.32;;;;;;;;;;6251295;23;19997;-78
2022/01/18 06:40:14;;;;;;;30.33;10.75;;;;;;;;;;6248330;23;20008;-79
2022/01/18 06:42:40;;;;;;;25.13;8.70;;;;;;;;;;6222123;23;20000;-77
2022/01/18 06:45:07;;;;;;;23.45;7.65;;;;;;;;;;6248202;23;20091;-77
2022/01/18 06:47:39;;;;;;;22.30;8.02;;;;;;;;;;6225107;23;20008;-79
2022/01/18 06:50:10;;;;;;;20.92;7.18;;;;;;;;;;6248931;23;20000;-77
2022/01/18 06:52:42;;;;;;;20.63;6.43;;;;;;;;;;6247639;23;20004;-79
2022/01/18 06:55:08;;;;;;;23.50;8.05;;;;;;;;;;6229130;23;20086;-79
2022/01/18 06:57:34;;;;;;;24.15;9.23;;;;;;;;;;6257300;22;20000;-76
2022/01/18 07:00:04;;;;;;;26.55;8.48;;;;;;;;;;6169423;23;20020;-81
2022/01/18 07:02:32;;;;;;;36.50;10.32;;;;;;;;;;6145758;23;20027;-78
2022/01/18 07:04:59;;;;;;;14.23;6.03;;;;;;;;;;6169915;23;20016;-76
2022/01/18 07:07:25;;;;;;;27.38;7.43;;;;;;;;;;6189742;23;19996;-76
2022/01/18 07:09:54;;;;;;;21.27;7.40;;;;;;;;;;6213447;23;20012;-73
2022/01/18 07:12:25;;;;;;;16.98;7.00;;;;;;;;;;6188382;23;19996;-76
2022/01/18 07:15:13;;;;;;;;;;;;;;;;;;;;;
2022/01/18 07:18:20;;;;;;;;;;;;;;;;;;;;;
2022/01/18 07:21:27;;;;;;;19.42;6.88;;;;;;;;;;6212841;23;20020;-78
2022/01/18 07:24:03;;;;;;;24.67;7.43;;;;;;;;;;6130847;23;20435;-77
2022/01/18 07:26:28;;;;;;;23.45;7.55;;;;;;;;;;6216972;23;20420;-77
2022/01/18 07:31:44;;;;;;;21.80;7.75;;;;;;;;;;6164618;23;20008;-77
2022/01/18 07:34:13;;;;;;;17.65;7.43;;;;;;;;;;6195857;23;20009;-78
2022/01/18 07:36:39;;;;;;;20.00;7.30;;;;;;;;;;6142920;23;20096;-80
2022/01/18 07:39:04;;;;;;;18.55;6.32;;;;;;;;;;6163675;23;20732;-77
2022/01/18 07:41:30;;;;;;;19.10;6.95;;;;;;;;;;6183757;23;20016;-75
2022/01/18 07:43:56;;;;;;;23.55;6.72;;;;;;;;;;6157596;23;20013;-77
2022/01/18 07:46:22;;;;;;;23.92;7.40;;;;;;;;;;6157863;23;20009;-77
2022/01/18 07:48:50;;;;;;;32.95;10.23;;;;;;;;;;6153859;23;20033;-78
2022/01/18 07:51:22;;;;;;;20.25;7.25;;;;;;;;;;6150461;23;20557;-75
2022/01/18 07:53:48;;;;;;;24.90;8.43;;;;;;;;;;6184164;23;20020;-76
2022/01/18 07:56:16;;;;;;;20.45;7.30;;;;;;;;;;6180283;23;20017;-74
2022/01/18 07:58:42;;;;;;;18.30;6.68;;;;;;;;;;6166733;23;20027;-75
2022/01/18 08:01:08;;;;;;;21.33;9.13;;;;;;;;;;6180841;23;20439;-74
2022/01/18 08:03:34;;;;;;;23.10;7.75;;;;;;;;;;6207655;23;20004;-75
2022/01/18 08:05:59;;;;;;;15.60;6.55;;;;;;;;;;6181768;23;20005;-75
2022/01/18 08:25:16;;;;;;;18.27;6.20;;;;;;;;;;6217553;22;20005;-75
2022/01/18 08:27:42;;;;;;;22.08;7.50;;;;;;;;;;6273724;22;20015;-77
2022/01/18 08:30:10;;;;;;;25.83;9.43;;;;;;;;;;6275181;22;19999;-78
2022/01/18 08:32:39;;;;;;;23.10;8.85;;;;;;;;;;6274327;22;20060;-76
2022/01/18 08:35:20;;;;;;;32.20;8.90;;;;;;;;;;6274543;22;20004;-76
2022/01/18 08:37:49;;;;;;;22.63;7.63;;;;;;;;;;6270836;22;20035;-76
2022/01/18 08:40:14;;;;;;;39.72;16.27;;;;;;;;;;6272488;22;20007;-76
2022/01/18 08:42:40;;;;;;;29.42;9.82;;;;;;;;;;6272054;22;20035;-76
2022/01/18 08:45:07;;;;;;;28.65;9.32;;;;;;;;;;6271966;22;20019;-76
2022/01/18 08:47:32;;;;;;;24.17;8.60;;;;;;;;;;6270148;22;20003;-74
2022/01/18 08:49:58;;;;;;;21.52;8.48;;;;;;;;;;6269008;22;20065;-73
2022/01/18 08:52:23;;;;;;;19.60;6.97;;;;;;;;;;6273675;22;20004;-74
2022/01/18 08:54:49;;;;;;;17.77;7.18;;;;;;;;;;6277217;22;20530;-75
2022/01/18 08:57:15;;;;;;;28.48;9.68;;;;;;;;;;6270364;22;20011;-78
2022/01/18 08:59:41;;;;;;;28.00;9.50;;;;;;;;;;6270545;22;20030;-76
2022/01/18 09:02:08;;;;;;;27.90;9.82;;;;;;;;;;6249369;22;20094;-78
2022/01/18 09:04:34;;;;;;;29.75;10.43;;;;;;;;;;6272948;22;20011;-78
2022/01/18 09:07:07;;;;;;;29.70;10.15;;;;;;;;;;6273002;22;20004;-74
2022/01/18 09:09:34;;;;;;;26.67;7.93;;;;;;;;;;6273525;22;20446;-75
2022/01/18 09:11:59;;;;;;;24.45;9.50;;;;;;;;;;6282043;22;20026;-75
2022/01/18 09:14:29;;;;;;;33.58;11.35;;;;;;;;;;6279535;22;20004;-77
2022/01/18 09:16:55;;;;;;;44.30;11.83;;;;;;;;;;6273130;22;20011;-77
2022/01/18 09:19:21;;;;;;;29.83;11.80;;;;;;;;;;6246778;22;20633;-77
2022/01/18 09:21:48;;;;;;;27.67;9.25;;;;;;;;;;6273417;22;20008;-77
2022/01/18 09:24:14;;;;;;;21.88;8.20;;;;;;;;;;6248277;22;20019;-78
2022/01/18 09:26:40;;;;;;;27.67;10.40;;;;;;;;;;6247491;22;20090;-77
2022/01/18 09:29:09;;;;;;;22.80;8.30;;;;;;;;;;6274638;22;20011;-76
2022/01/18 09:31:36;;;;;;;18.17;7.07;;;;;;;;;;6279840;22;20011;-76
2022/01/18 09:34:01;;;;;;;18.65;7.13;;;;;;;;;;6282326;22;20057;-75
2022/01/18 09:36:27;;;;;;;25.73;9.40;;;;;;;;;;6274567;22;20011;-76
2022/01/18 09:38:53;;;;;;;33.90;11.35;;;;;;;;;;6250033;22;20000;-78
2022/01/18 09:41:21;;;;;;;21.83;8.32;;;;;;;;;;6276890;22;20098;-77
2022/01/18 09:43:47;;;;;;;27.95;8.23;;;;;;;;;;6227623;22;20011;-76
2022/01/18 09:46:14;;;;;;;30.60;9.77;;;;;;;;;;6278266;22;20426;-78
2022/01/18 09:48:39;;;;;;;20.58;8.13;;;;;;;;;;6273596;22;20042;-77
2022/01/18 09:51:05;;;;;;;27.42;8.20;;;;;;;;;;6220990;22;20008;-75
2022/01/18 09:53:30;;;;;;;21.45;7.97;;;;;;;;;;6248885;22;20009;-75
2022/01/18 09:55:56;;;;;;;18.20;6.95;;;;;;;;;;6275615;22;20014;-76
2022/01/18 09:58:22;;;;;;;31.05;8.52;;;;;;;;;;6278379;22;19996;-76
2022/01/18 10:00:49;;;;;;;25.92;8.68;;;;;;;;;;6281782;22;20038;-79
2022/01/18 10:03:33;;;;;;;15.52;6.55;;;;;;;;;;6278174;22;20004;-76
2022/01/18 10:06:00;;;;;;;45.25;16.15;;;;;;;;;;6275028;22;19999;-77
2022/01/18 10:08:25;;;;;;;21.95;7.32;;;;;;;;;;6277271;22;20006;-78
2022/01/18 10:10:53;;;;;;;17.08;7.15;;;;;;;;;;6277704;22;20075;-75
2022/01/18 10:13:26;;;;;;;22.48;6.32;;;;;;;;;;6283346;22;20341;-75
2022/01/18 10:16:00;;;;;;;20.45;6.88;;;;;;;;;;6276777;22;20004;-74
2022/01/18 10:18:52;;;;;;;21.77;6.80;;;;;;;;;;6275875;22;20025;-75
2022/01/18 10:21:26;;;;;;;19.92;6.25;;;;;;;;;;6278609;22;20173;-76
2022/01/18 10:23:54;;;;;;;18.50;7.43;;;;;;;;;;6275842;22;20000;-75
2022/01/18 10:26:23;;;;;;;22.40;6.93;;;;;;;;;;6250845;22;20502;-76
2022/01/18 10:28:59;;;;;;;24.13;9.68;;;;;;;;;;6276789;22;20411;-75
2022/01/18 10:31:26;;;;;;;22.23;8.68;;;;;;;;;;6282518;22;20480;-76
2022/01/18 10:35:17;;;;;;;22.55;8.40;;;;;;;;;;6280123;22;20050;-75
2022/01/18 10:37:20;;;;;;;25.15;8.23;;;;;;;;;;6263280;22;20046;-76
2022/01/18 10:39:54;;;;;;;22.58;9.90;;;;;;;;;;6276039;22;20003;-76
2022/01/18 10:42:29;;;;;;;31.55;10.13;;;;;;;;;;6277292;22;19999;-76
2022/01/18 10:45:09;;;;;;;30.58;8.32;;;;;;;;;;6277843;22;20297;-77
2022/01/18 10:47:52;;;;;;;16.07;7.13;;;;;;;;;;6275591;22;20056;-76
2022/01/18 10:50:24;;;;;;;27.00;6.80;;;;;;;;;;6252026;22;20350;-75
2022/01/18 10:52:52;;;;;;;30.15;11.70;;;;;;;;;;6283510;22;20030;-77
2022/01/18 10:55:23;;;;;;;20.52;7.00;;;;;;;;;;6275413;22;20212;-76
2022/01/18 10:57:49;;;;;;;34.45;13.00;;;;;;;;;;6267344;22;20423;-76
2022/01/18 11:00:21;;;;;;;29.27;8.77;;;;;;;;;;6272892;22;20026;-78
2022/01/18 11:02:52;;;;;;;26.63;9.65;;;;;;;;;;6250769;22;20015;-77
2022/01/18 11:05:18;;;;;;;;;;;;;;;;;;6271278;22;20369;-77
2022/01/18 11:07:50;;;;;;;29.25;9.27;;;;;;;;;;6271217;22;19923;-77
2022/01/18 11:10:20;;;;;;;30.55;9.18;;;;;;;;;;6272376;22;20000;-79
2022/01/18 11:13:03;;;;;;;;;;;;;;;;;;6278985;22;20086;-77
2022/01/18 11:15:32;;;;;;;16.85;6.10;;;;;;;;;;6273101;22;19907;-76
2022/01/18 11:18:30;;;;;;;39.58;10.73;;;;;;;;;;6272629;22;20014;-77
2022/01/18 11:20:56;;;;;;;28.40;7.22;;;;;;;;;;6273773;22;20007;-78
2022/01/18 11:23:23;;;;;;;28.90;8.50;;;;;;;;;;6276891;22;20011;-81
2022/01/18 11:25:52;;;;;;;178.68;60.35;;;;;;;;;;6251264;22;20492;-79
2022/01/18 11:28:18;;;;;;;54.58;19.50;;;;;;;;;;6279663;22;19999;-81
2022/01/18 11:30:47;;;;;;;40.63;12.13;;;;;;;;;;6281368;22;19996;-79
2022/01/18 11:33:14;;;;;;;27.92;9.02;;;;;;;;;;6284515;22;20450;-81
2022/01/18 11:36:05;;;;;;;23.77;8.65;;;;;;;;;;6278593;22;20003;-77
2022/01/18 11:38:42;;;;;;;26.27;9.38;;;;;;;;;;6275606;22;20003;-76
2022/01/18 11:41:22;;;;;;;27.98;9.13;;;;;;;;;;6274960;22;20003;-78
2022/01/18 11:43:51;;;;;;;40.22;10.55;;;;;;;;;;6246178;22;20012;-75
2022/01/18 11:46:27;;;;;;;25.27;8.38;;;;;;;;;;6222255;22;20008;-79
2022/01/18 11:49:05;;;;;;;42.53;11.68;;;;;;;;;;6269994;22;20447;-76
2022/01/18 11:51:47;;;;;;;38.80;10.57;;;;;;;;;;6276272;22;20145;-74
2022/01/18 11:57:24;;;;;;;25.55;9.13;;;;;;;;;;6277092;22;20003;-77
2022/01/18 12:00:29;;;;;;;27.05;8.73;;;;;;;;;;6272856;22;20338;-79
2022/01/18 12:03:14;;;;;;;37.67;10.70;;;;;;;;;;6274706;22;20030;-77
2022/01/18 12:05:42;;;;;;;25.20;6.40;;;;;;;;;;6272828;22;20363;-79
2022/01/18 12:08:08;;;;;;;26.58;8.23;;;;;;;;;;6274741;22;20434;-77
2022/01/18 12:10:34;;;;;;;19.20;6.45;;;;;;;;;;6285368;22;20099;-79
2022/01/18 12:13:01;;;;;;;29.80;9.75;;;;;;;;;;6280637;22;20057;-78
2022/01/18 12:15:33;;;;;;;23.50;7.63;;;;;;;;;;6274629;22;20003;-78
2022/01/18 12:18:10;;;;;;;24.00;8.23;;;;;;;;;;6274291;22;20014;-78
2022/01/18 12:20:42;;;;;;;29.58;7.32;;;;;;;;;;6275824;22;20008;-79
2022/01/18 12:23:09;;;;;;;23.25;6.90;;;;;;;;;;6273726;22;20008;-78
2022/01/18 12:26:14;;;;;;;22.90;6.63;;;;;;;;;;6275031;22;20008;-77
2022/01/18 12:34:26;;;;;;;21.10;6.75;;;;;;;;;;6282354;22;20015;-77
2022/01/18 12:37:08;;;;;;;16.00;5.57;;;;;;;;;;6276363;22;20405;-78
2022/01/18 12:45:15;;;;;;;26.27;10.20;;;;;;;;;;6280662;22;20011;-78
2022/01/18 12:47:52;;;;;;;37.17;9.40;;;;;;;;;;6275153;22;20006;-78
2022/01/18 12:50:23;;;;;;;25.30;8.15;;;;;;;;;;6257065;22;20025;-77
2022/01/18 12:52:49;;;;;;;31.83;7.35;;;;;;;;;;6255526;22;20061;-78
2022/01/18 12:55:33;;;;;;;42.38;6.95;;;;;;;;;;6278827;22;20347;-78
2022/01/18 12:58:06;;;;;;;21.70;7.20;;;;;;;;;;6277157;22;20008;-77
2022/01/18 13:00:50;;;;;;;25.98;7.43;;;;;;;;;;6277451;22;20006;-77
2022/01/18 13:03:27;;;;;;;22.85;7.18;;;;;;;;;;6277490;22;20032;-78
2022/01/18 13:05:55;;;;;;;23.08;6.18;;;;;;;;;;6276781;22;20004;-79
2022/01/18 13:08:21;;;;;;;17.65;6.00;;;;;;;;;;6281594;22;20071;-77
2022/01/18 13:10:49;;;;;;;32.13;5.60;;;;;;;;;;6261050;22;20000;-77
2022/01/18 13:13:16;;;;;;;33.95;9.07;;;;;;;;;;6279320;22;20004;-78
2022/01/18 13:25:02;;;;;;;21.23;7.30;;;;;;;;;;6278705;22;20011;-78
2022/01/18 13:26:48;;;;;;;18.50;6.93;;;;;;;;;;6268283;22;20043;-79
2022/01/18 13:29:17;;;;;;;20.98;6.85;;;;;;;;;;6278771;22;20007;-78
2022/01/18 13:31:55;;;;;;;20.40;6.15;;;;;;;;;;6287472;22;20063;-77
2022/01/18 13:34:21;;;;;;;25.55;6.53;;;;;;;;;;6280556;22;20019;-78
2022/01/18 13:36:55;;;;;;;23.48;7.15;;;;;;;;;;6253574;22;20366;-79
2022/01/18 13:39:31;;;;;;;39.65;10.13;;;;;;;;;;6280711;22;20000;-76
2022/01/18 13:42:00;;;;;;;36.10;9.25;;;;;;;;;;6279360;22;20004;-77
2022/01/18 13:44:35;;;;;;;21.08;6.70;;;;;;;;;;6278404;22;20428;-78
2022/01/18 13:47:20;;;;;;;19.77;6.10;;;;;;;;;;6228731;22;20105;-77
2022/01/18 13:49:45;;;;;;;23.20;6.93;;;;;;;;;;6277657;22;20004;-75
2022/01/18 13:52:12;;;;;;;25.95;7.45;;;;;;;;;;6284537;22;20020;-76
2022/01/18 13:54:51;;;;;;;27.83;8.13;;;;;;;;;;6253525;22;20007;-78
2022/01/18 13:57:19;;;;;;;25.50;8.23;;;;;;;;;;6276664;22;19999;-78
2022/01/18 13:59:45;;;;;;;21.80;7.18;;;;;;;;;;6277024;22;20090;-78
2022/01/18 14:02:12;;;;;;;23.77;7.78;;;;;;;;;;6275211;22;20426;-78
2022/01/18 14:04:39;;;;;;;21.63;7.50;;;;;;;;;;6276632;22;20007;-78
2022/01/18 14:07:05;;;;;;;42.17;12.32;;;;;;;;;;6276533;22;20000;-77
2022/01/18 14:09:30;;;;;;;31.73;9.27;;;;;;;;;;6274960;22;20038;-77
2022/01/18 14:11:56;;;;;;;26.58;8.32;;;;;;;;;;6281487;22;20006;-76
2022/01/18 14:14:24;;;;;;;40.90;13.13;;;;;;;;;;6277780;22;19999;-78
2022/01/18 14:16:55;;;;;;;32.70;11.10;;;;;;;;;;6275058;22;19996;-78
2022/01/18 14:19:47;;;;;;;27.55;12.63;;;;;;;;;;6275315;22;20061;-78
2022/01/18 14:22:14;;;;;;;28.80;8.77;;;;;;;;;;6272425;22;20106;-77
2022/01/18 14:24:40;;;;;;;24.63;8.23;;;;;;;;;;6276306;22;20008;-79
2022/01/18 14:27:08;;;;;;;28.10;8.07;;;;;;;;;;6249419;22;20078;-77
2022/01/18 14:29:48;;;;;;;24.33;9.60;;;;;;;;;;6276511;22;20000;-77
2022/01/18 14:32:21;;;;;;;23.52;7.65;;;;;;;;;;6282121;22;20011;-77
2022/01/18 14:34:56;;;;;;;27.80;7.63;;;;;;;;;;6250892;22;20355;-76
2022/01/18 14:37:32;;;;;;;24.80;7.80;;;;;;;;;;6226239;22;20401;-77
2022/01/18 14:40:00;;;;;;;28.42;8.85;;;;;;;;;;6251525;22;19999;-77
2022/01/18 14:42:34;;;;;;;26.75;9.10;;;;;;;;;;6249687;22;20332;-78
2022/01/18 14:47:25;;;;;;;27.30;7.72;;;;;;;;;;6276152;22;20014;-76
2022/01/18 14:50:16;;;;;;;22.27;8.15;;;;;;;;;;6276093;22;20122;-78
2022/01/18 14:52:41;;;;;;;33.53;9.55;;;;;;;;;;6279680;22;20007;-77
2022/01/18 14:55:07;;;;;;;20.67;7.03;;;;;;;;;;6282063;22;20335;-78
2022/01/18 14:57:33;;;;;;;21.40;7.25;;;;;;;;;;6276436;22;20004;-77
2022/01/18 14:59:59;;;;;;;25.20;8.25;;;;;;;;;;6274790;22;20359;-78
2022/01/18 15:02:25;;;;;;;27.95;6.75;;;;;;;;;;6275082;22;20396;-78
2022/01/18 15:04:50;;;;;;;24.27;7.20;;;;;;;;;;6274846;22;20012;-78
2022/01/18 15:07:16;;;;;;;21.05;6.35;;;;;;;;;;6249141;22;20003;-78
2022/01/18 15:09:42;;;;;;;20.23;6.90;;;;;;;;;;6274421;22;20358;-78
2022/01/18 15:12:07;;;;;;;12.60;5.38;;;;;;;;;;6276337;22;20010;-78
2022/01/18 15:14:33;;;;;;;13.57;5.55;;;;;;;;;;6287793;22;20000;-78
2022/01/18 15:16:59;;;;;;;22.98;7.47;;;;;;;;;;6278654;22;20027;-78
2022/01/18 15:19:25;;;;;;;20.17;6.47;;;;;;;;;;6274822;22;20087;-78
2022/01/18 15:21:51;;;;;;;28.38;8.00;;;;;;;;;;6248952;22;20061;-78
2022/01/18 15:24:16;;;;;;;32.22;9.27;;;;;;;;;;6223829;22;20442;-79
2022/01/18 15:26:42;;;;;;;96.15;35.92;;;;;;;;;;6274224;22;20011;-78
2022/01/18 15:29:07;;;;;;;54.13;17.17;;;;;;;;;;6274251;22;20356;-79
2022/01/18 15:31:33;;;;;;;52.65;17.27;;;;;;;;;;6248631;22;20077;-78
2022/01/18 15:33:58;;;;;;;47.22;13.40;;;;;;;;;;6277769;22;20030;-78
2022/01/18 15:36:24;;;;;;;38.17;12.02;;;;;;;;;;6283498;22;20083;-78
2022/01/18 15:38:50;;;;;;;33.55;11.18;;;;;;;;;;6274467;22;20453;-77
2022/01/18 15:41:15;;;;;;;44.58;11.55;;;;;;;;;;6274265;22;20004;-78
2022/01/18 15:43:41;;;;;;;40.42;12.40;;;;;;;;;;6275724;22;20007;-76
2022/01/18 15:46:07;;;;;;;34.25;12.18;;;;;;;;;;6249304;22;20038;-79
2022/01/18 15:48:33;;;;;;;32.33;11.23;;;;;;;;;;6274235;22;20004;-78
2022/01/18 15:50:58;;;;;;;26.83;8.77;;;;;;;;;;6274129;22;20000;-78
2022/01/18 15:53:24;;;;;;;33.55;9.50;;;;;;;;;;6274146;22;20010;-76
2022/01/18 15:55:49;;;;;;;20.13;8.45;;;;;;;;;;6280104;22;20435;-77
2022/01/18 15:58:15;;;;;;;31.38;9.80;;;;;;;;;;6277431;22;20393;-77
2022/01/18 16:00:42;;;;;;;34.53;12.55;;;;;;;;;;6277468;22;20031;-78
2022/01/18 16:03:09;;;;;;;28.88;9.88;;;;;;;;;;6274537;22;20003;-77
2022/01/18 16:05:36;;;;;;;31.67;9.63;;;;;;;;;;6276105;22;20408;-77
2022/01/18 16:08:05;;;;;;;34.72;11.80;;;;;;;;;;6276000;22;20007;-79
2022/01/18 16:10:30;;;;;;;22.02;8.05;;;;;;;;;;6281607;22;20003;-78
2022/01/18 16:12:56;;;;;;;32.88;9.90;;;;;;;;;;6285256;22;20101;-79
2022/01/18 16:15:22;;;;;;;50.92;13.48;;;;;;;;;;6283191;22;20007;-78
2022/01/18 16:17:48;;;;;;;67.80;20.05;;;;;;;;;;6286140;22;20003;-78
2022/01/18 16:20:13;;;;;;;55.10;17.27;;;;;;;;;;6283215;22;20007;-78
2022/01/18 16:22:39;;;;;;;47.15;17.50;;;;;;;;;;6277049;22;20338;-78
2022/01/18 16:25:05;;;;;;;70.30;22.08;;;;;;;;;;6275500;22;20003;-77
2022/01/18 16:27:30;;;;;;;61.75;20.30;;;;;;;;;;6273661;22;20058;-77
2022/01/18 16:29:55;;;;;;;50.35;14.52;;;;;;;;;;6273640;22;20006;-77
2022/01/18 16:32:23;;;;;;;54.30;16.90;;;;;;;;;;6275105;22;20007;-77
2022/01/18 16:34:48;;;;;;;54.40;13.38;;;;;;;;;;6273621;22;20006;-77
2022/01/18 16:37:13;;;;;;;67.18;17.05;;;;;;;;;;6285687;22;19988;-76
2022/01/18 16:39:41;;;;;;;68.78;17.33;;;;;;;;;;6283891;22;20031;-77
2022/01/18 16:42:06;;;;;;;75.68;18.25;;;;;;;;;;6275268;22;20000;-77
2022/01/18 16:44:32;;;;;;;56.40;13.35;;;;;;;;;;6274844;22;20003;-78
2022/01/18 16:46:58;;;;;;;62.05;14.98;;;;;;;;;;6275138;22;20004;-78
2022/01/18 16:49:24;;;;;;;76.82;18.33;;;;;;;;;;6273711;22;20004;-77
2022/01/18 16:51:49;;;;;;;50.47;12.85;;;;;;;;;;6274936;22;20070;-77